CheckWX is a tool to help pilots better visualize weather data.  It is not intended as a substitute for an official pre-flight weather briefing.

20:58:17 UTC

LTCA TAF
Elazığ Airport
Elazığ, Turkey
TAF LTCA 221940Z 2221/2306 27008KT CAVOK

Mar-22@
21:00 UTC

Mar-22 @ 21:00 UTC

Mar-23@
06:00 UTC

Mar-23 @ 06:00 UTC

TAF LTCA 221940Z 2221/2306 27008KT CAVOK
Wind
  • 270° at 8 KTS
Conditions
No significant weather
Cloud Levels
  • No significant clouds